Time;durP1;ratioP1;P1;durP2;ratioP2;P2;SDS_P1;SDS_P2;PMS_P1;PMS_P2;Temp;Humidity;BMP_temperature;BMP_pressure;BME280_temperature;BME280_humidity;BME280_pressure;Samples;Min_cycle;Max_cycle;Signal;HPM_P1;HPM_P2
2022/03/18 00:02:35;;;;;;;8.70;7.53;;;;;;;;;;12499200;28;20044;-79
2022/03/18 00:08:36;;;;;;;9.63;8.30;;;;;;;;;;12495004;28;20045;-79
2022/03/18 00:14:39;;;;;;;8.25;7.38;;;;;;;;;;12499329;28;20049;-79
2022/03/18 00:20:41;;;;;;;7.95;7.15;;;;;;;;;;12493375;28;20038;-79
2022/03/18 00:26:43;;;;;;;7.93;7.00;;;;;;;;;;12497548;28;20398;-78
2022/03/18 00:32:45;;;;;;;5.50;5.00;;;;;;;;;;12504034;28;20030;-78
2022/03/18 00:38:47;;;;;;;5.63;5.13;;;;;;;;;;12498064;28;20038;-78
2022/03/18 00:44:48;;;;;;;6.78;6.18;;;;;;;;;;12504216;28;20041;-78
2022/03/18 00:57:12;;;;;;;9.45;8.38;;;;;;;;;;12503822;28;20034;-79
2022/03/18 01:03:15;;;;;;;10.45;8.57;;;;;;;;;;12504032;28;20041;-79
2022/03/18 01:09:17;;;;;;;;;;;;;;;;;;12504049;28;20045;-79
2022/03/18 01:15:19;;;;;;;9.40;8.50;;;;;;;;;;12503785;28;19924;-79
2022/03/18 01:21:20;;;;;;;8.00;7.22;;;;;;;;;;12502455;28;20056;-79
2022/03/18 01:27:22;;;;;;;9.20;8.23;;;;;;;;;;12501051;28;20052;-79
2022/03/18 01:33:24;;;;;;;9.40;8.20;;;;;;;;;;12501716;28;20033;-80
2022/03/18 01:39:26;;;;;;;8.90;7.87;;;;;;;;;;12500940;28;20033;-80
2022/03/18 01:45:27;;;;;;;9.02;8.23;;;;;;;;;;12501732;28;20052;-79
2022/03/18 01:51:29;;;;;;;9.27;8.27;;;;;;;;;;12501573;28;20037;-79
2022/03/18 01:57:31;;;;;;;9.55;8.23;;;;;;;;;;12505688;28;20049;-80
2022/03/18 02:03:33;;;;;;;11.40;9.65;;;;;;;;;;12484474;28;20030;-79
2022/03/18 02:09:36;;;;;;;9.88;8.60;;;;;;;;;;12501403;28;20042;-79
2022/03/18 02:15:37;;;;;;;;;;;;;;;;;;12501378;28;20410;-79
2022/03/18 02:21:40;;;;;;;9.40;8.45;;;;;;;;;;12501378;28;19909;-78
2022/03/18 02:27:53;;;;;;;8.00;7.20;;;;;;;;;;12499451;28;20042;-80
2022/03/18 02:33:54;;;;;;;11.68;10.48;;;;;;;;;;12481231;28;20044;-80
2022/03/18 02:39:58;;;;;;;11.70;10.50;;;;;;;;;;12497838;28;20052;-79
2022/03/18 02:46:00;;;;;;;12.90;11.55;;;;;;;;;;12497322;28;20384;-79
2022/03/18 02:52:02;;;;;;;11.98;10.82;;;;;;;;;;12479772;28;20033;-80
2022/03/18 02:58:04;;;;;;;11.02;9.88;;;;;;;;;;12496765;28;20486;-80
2022/03/18 03:04:05;;;;;;;14.57;12.40;;;;;;;;;;12497610;28;20045;-79
2022/03/18 03:10:07;;;;;;;12.57;11.15;;;;;;;;;;12497456;28;20045;-79
2022/03/18 03:16:09;;;;;;;11.75;10.55;;;;;;;;;;12496297;28;20068;-79
2022/03/18 03:22:11;;;;;;;14.93;13.07;;;;;;;;;;12497033;28;20029;-79
2022/03/18 03:28:13;;;;;;;14.50;13.00;;;;;;;;;;12495380;28;20045;-79
2022/03/18 03:34:16;;;;;;;14.47;12.97;;;;;;;;;;12495408;28;20034;-79
2022/03/18 03:40:19;;;;;;;13.55;12.15;;;;;;;;;;12495087;28;20398;-79
2022/03/18 03:46:21;;;;;;;12.27;10.93;;;;;;;;;;12495114;28;20398;-80
2022/03/18 03:52:22;;;;;;;12.05;10.82;;;;;;;;;;12489803;28;20029;-79
2022/03/18 03:58:24;;;;;;;11.70;10.50;;;;;;;;;;12494334;28;20033;-80
2022/03/18 04:04:26;;;;;;;13.57;12.13;;;;;;;;;;12506670;28;20041;-79
2022/03/18 04:10:28;;;;;;;14.70;13.20;;;;;;;;;;12498178;28;20489;-80
2022/03/18 04:16:30;;;;;;;14.02;12.02;;;;;;;;;;12497805;28;20587;-80
2022/03/18 04:22:32;;;;;;;13.18;11.77;;;;;;;;;;12477655;28;20045;-80
2022/03/18 04:28:34;;;;;;;13.55;12.25;;;;;;;;;;12476979;28;20621;-80
2022/03/18 04:34:35;;;;;;;11.95;10.80;;;;;;;;;;12495549;28;20041;-79
2022/03/18 04:40:37;;;;;;;12.70;11.40;;;;;;;;;;12494517;28;20026;-80
2022/03/18 04:46:39;;;;;;;12.27;11.10;;;;;;;;;;12493582;28;20497;-80
2022/03/18 04:52:41;;;;;;;11.90;10.40;;;;;;;;;;12493187;28;20040;-79
2022/03/18 04:58:43;;;;;;;12.82;11.52;;;;;;;;;;12493538;28;20029;-79
2022/03/18 05:04:45;;;;;;;12.47;11.17;;;;;;;;;;12499991;28;20040;-80
2022/03/18 05:10:48;;;;;;;12.80;11.45;;;;;;;;;;12495852;28;20413;-80
2022/03/18 05:16:50;;;;;;;10.32;9.27;;;;;;;;;;12507494;28;20061;-79
2022/03/18 05:22:52;;;;;;;8.98;7.88;;;;;;;;;;12490329;28;20037;-79
2022/03/18 05:28:53;;;;;;;10.05;9.15;;;;;;;;;;12503269;28;20037;-78
2022/03/18 05:34:55;;;;;;;11.80;10.60;;;;;;;;;;12501921;28;20037;-78
2022/03/18 05:40:57;;;;;;;9.60;8.50;;;;;;;;;;12515523;28;20041;-77
2022/03/18 05:46:58;;;;;;;10.18;9.18;;;;;;;;;;12504369;28;20490;-79
2022/03/18 05:53:00;;;;;;;11.98;10.75;;;;;;;;;;12500714;28;20029;-79
2022/03/18 05:59:05;;;;;;;15.73;14.03;;;;;;;;;;12500927;28;20040;-80
2022/03/18 06:05:07;;;;;;;19.13;16.05;;;;;;;;;;12500275;28;20036;-79
2022/03/18 06:17:29;;;;;;;15.15;13.38;;;;;;;;;;12506463;28;20056;-79
2022/03/18 06:23:31;;;;;;;13.80;12.20;;;;;;;;;;12502675;28;20048;-79
2022/03/18 06:29:33;;;;;;;13.35;11.95;;;;;;;;;;12498672;28;20064;-77
2022/03/18 06:35:35;;;;;;;13.95;12.48;;;;;;;;;;12499006;28;20385;-76
2022/03/18 06:41:37;;;;;;;12.85;11.48;;;;;;;;;;12512683;28;20033;-77
2022/03/18 06:47:38;;;;;;;12.65;11.32;;;;;;;;;;12519533;28;20041;-78
2022/03/18 06:53:40;;;;;;;11.15;9.98;;;;;;;;;;12504960;28;20036;-77
2022/03/18 06:59:42;;;;;;;13.50;12.10;;;;;;;;;;12533414;28;20105;-76
2022/03/18 07:05:44;;;;;;;10.25;9.20;;;;;;;;;;12513316;28;20470;-76
2022/03/18 07:11:46;;;;;;;11.05;9.82;;;;;;;;;;12518930;28;20033;-78
2022/03/18 07:18:00;;;;;;;16.35;14.75;;;;;;;;;;12517817;28;20041;-77
2022/03/18 07:24:01;;;;;;;14.60;12.90;;;;;;;;;;12532381;28;20025;-77
2022/03/18 07:30:05;;;;;;;15.23;13.68;;;;;;;;;;12515299;28;20045;-78
2022/03/18 07:36:08;;;;;;;15.10;13.63;;;;;;;;;;12519964;28;20025;-77
2022/03/18 07:42:10;;;;;;;15.15;13.55;;;;;;;;;;12507729;28;20040;-79
2022/03/18 07:48:11;;;;;;;15.85;14.25;;;;;;;;;;12520308;28;20041;-77
2022/03/18 07:54:13;;;;;;;16.42;13.95;;;;;;;;;;12510515;28;20117;-75
2022/03/18 08:00:16;;;;;;;15.43;13.63;;;;;;;;;;12524644;28;20322;-77
2022/03/18 08:06:21;;;;;;;16.63;14.82;;;;;;;;;;12511144;28;20047;-76
2022/03/18 08:12:22;;;;;;;15.75;14.07;;;;;;;;;;12515597;28;20037;-78
2022/03/18 08:18:24;;;;;;;15.77;14.17;;;;;;;;;;12493900;28;20429;-77
2022/03/18 08:24:27;;;;;;;14.90;13.45;;;;;;;;;;12503959;28;20033;-77
2022/03/18 08:30:32;;;;;;;14.82;13.32;;;;;;;;;;12510433;28;20485;-76
2022/03/18 08:36:35;;;;;;;14.80;13.20;;;;;;;;;;12516776;28;20029;-79
2022/03/18 08:42:37;;;;;;;12.45;11.27;;;;;;;;;;12501375;28;20046;-78
2022/03/18 08:48:39;;;;;;;12.95;11.68;;;;;;;;;;12508796;28;20045;-77
2022/03/18 08:54:40;;;;;;;10.63;9.60;;;;;;;;;;12532694;28;20504;-78
2022/03/18 09:00:42;;;;;;;11.25;10.15;;;;;;;;;;12523941;28;20041;-76
2022/03/18 09:06:47;;;;;;;8.95;8.02;;;;;;;;;;12522678;28;20048;-78
2022/03/18 09:13:00;;;;;;;9.60;8.60;;;;;;;;;;12520018;28;20500;-80
2022/03/18 09:19:17;;;;;;;9.68;8.68;;;;;;;;;;12506226;28;20057;-76
2022/03/18 09:25:20;;;;;;;12.60;8.43;;;;;;;;;;12517936;28;20021;-75
2022/03/18 09:31:23;;;;;;;8.30;7.47;;;;;;;;;;12521213;28;20037;-77
2022/03/18 09:37:24;;;;;;;9.00;6.53;;;;;;;;;;12504095;28;20034;-79
2022/03/18 09:43:31;;;;;;;14.80;7.57;;;;;;;;;;12516633;28;20037;-79
2022/03/18 09:49:34;;;;;;;7.53;5.55;;;;;;;;;;12517866;28;20053;-78
2022/03/18 09:55:37;;;;;;;17.58;7.18;;;;;;;;;;12521123;28;20390;-76
2022/03/18 10:01:39;;;;;;;9.00;7.10;;;;;;;;;;12517842;28;20041;-79
2022/03/18 10:07:52;;;;;;;6.50;5.90;;;;;;;;;;12521709;28;20077;-79
2022/03/18 10:13:59;;;;;;;8.40;5.60;;;;;;;;;;12525925;28;20057;-79
2022/03/18 10:20:02;;;;;;;5.38;4.88;;;;;;;;;;12527078;28;20037;-84
2022/03/18 10:26:04;;;;;;;6.60;6.00;;;;;;;;;;12553435;28;20036;-81
2022/03/18 10:32:06;;;;;;;7.80;5.68;;;;;;;;;;12521423;28;20492;-81
2022/03/18 10:38:08;;;;;;;5.45;4.90;;;;;;;;;;12521478;28;20381;-78
2022/03/18 10:44:09;;;;;;;5.70;5.20;;;;;;;;;;12518111;28;20025;-81
2022/03/18 10:50:11;;;;;;;5.87;5.33;;;;;;;;;;12520971;28;20057;-77
2022/03/18 10:56:13;;;;;;;6.83;6.23;;;;;;;;;;12530199;28;20487;-80
2022/03/18 11:02:16;;;;;;;6.38;5.70;;;;;;;;;;12528054;28;20033;-78
2022/03/18 11:08:22;;;;;;;6.28;5.68;;;;;;;;;;12530717;28;20041;-78
2022/03/18 11:14:24;;;;;;;4.50;4.10;;;;;;;;;;12536099;28;20049;-79
2022/03/18 11:20:27;;;;;;;6.50;5.90;;;;;;;;;;12521411;28;20037;-77
2022/03/18 11:26:29;;;;;;;6.05;5.30;;;;;;;;;;12524577;28;20041;-78
2022/03/18 11:32:32;;;;;;;5.60;5.10;;;;;;;;;;12527733;28;20481;-77
2022/03/18 11:38:55;;;;;;;6.28;5.68;;;;;;;;;;12522573;28;20030;-78
2022/03/18 11:44:58;;;;;;;7.28;6.57;;;;;;;;;;12517383;28;20045;-77
2022/03/18 11:51:20;;;;;;;8.02;7.22;;;;;;;;;;12525532;28;20044;-80
2022/03/18 11:57:29;;;;;;;7.03;6.22;;;;;;;;;;12508070;28;20033;-80
2022/03/18 12:03:31;;;;;;;10.70;6.75;;;;;;;;;;12504859;28;20378;-79
2022/03/18 12:09:47;;;;;;;6.97;5.50;;;;;;;;;;12513834;28;20525;-78
2022/03/18 12:15:49;;;;;;;7.85;7.15;;;;;;;;;;12517326;28;20061;-79
2022/03/18 12:21:51;;;;;;;8.10;6.63;;;;;;;;;;12497209;28;20032;-77
2022/03/18 12:27:54;;;;;;;5.93;5.37;;;;;;;;;;12523653;28;20045;-78
2022/03/18 12:33:59;;;;;;;6.65;5.50;;;;;;;;;;12561392;28;20025;-78
2022/03/18 12:40:11;;;;;;;5.28;4.45;;;;;;;;;;12558366;28;20041;-78
2022/03/18 12:46:14;;;;;;;6.75;5.72;;;;;;;;;;12587322;28;20048;-81
2022/03/18 12:52:16;;;;;;;5.63;5.05;;;;;;;;;;12612927;28;20128;-80
2022/03/18 12:58:18;;;;;;;7.03;6.00;;;;;;;;;;12603643;28;20036;-79
2022/03/18 13:04:20;;;;;;;6.18;5.47;;;;;;;;;;12571549;28;20048;-79
2022/03/18 13:10:22;;;;;;;7.32;6.55;;;;;;;;;;12559589;28;20052;-79
2022/03/18 13:16:24;;;;;;;6.87;6.17;;;;;;;;;;12560253;28;20493;-79
2022/03/18 13:38:29;;;;;;;6.88;6.25;;;;;;;;;;12789408;27;20480;-75
2022/03/18 14:16:15;;;;;;;5.93;5.35;;;;;;;;;;12636811;27;21003;-75
2022/03/18 14:22:29;;;;;;;5.18;4.78;;;;;;;;;;12636141;28;20501;-76
2022/03/18 14:28:31;;;;;;;6.80;5.20;;;;;;;;;;12636177;28;20059;-76
2022/03/18 14:34:32;;;;;;;6.87;5.93;;;;;;;;;;12636386;28;20039;-76
2022/03/18 14:40:37;;;;;;;6.90;5.80;;;;;;;;;;12636288;28;20051;-77
2022/03/18 14:46:39;;;;;;;7.05;5.93;;;;;;;;;;12618168;28;20035;-76
2022/03/18 14:52:41;;;;;;;6.10;5.45;;;;;;;;;;12635637;28;20028;-76
2022/03/18 14:58:43;;;;;;;5.88;5.25;;;;;;;;;;12635225;28;20369;-76
2022/03/18 15:04:45;;;;;;;6.60;5.05;;;;;;;;;;12635162;28;20043;-76
2022/03/18 15:10:47;;;;;;;5.18;4.68;;;;;;;;;;12634435;28;20055;-76
2022/03/18 15:16:49;;;;;;;6.20;4.40;;;;;;;;;;12587376;28;20024;-75
2022/03/18 15:22:51;;;;;;;6.07;5.47;;;;;;;;;;12601279;28;20051;-76
2022/03/18 15:28:53;;;;;;;4.90;4.40;;;;;;;;;;12601388;28;20038;-79
2022/03/18 15:34:55;;;;;;;5.03;4.53;;;;;;;;;;12582109;28;20048;-79
2022/03/18 15:40:57;;;;;;;6.50;5.90;;;;;;;;;;12599795;28;20048;-75
2022/03/18 15:46:59;;;;;;;5.53;4.97;;;;;;;;;;12599056;28;20029;-76
2022/03/18 15:53:02;;;;;;;6.87;5.67;;;;;;;;;;12597951;28;20039;-74
2022/03/18 15:59:04;;;;;;;5.00;4.60;;;;;;;;;;12597587;28;20380;-79
2022/03/18 16:05:06;;;;;;;4.72;4.15;;;;;;;;;;12597445;28;20408;-79
2022/03/18 16:11:12;;;;;;;5.85;5.30;;;;;;;;;;12597454;28;20064;-79
2022/03/18 16:17:15;;;;;;;5.68;4.78;;;;;;;;;;12596649;28;20041;-77
2022/03/18 16:23:17;;;;;;;8.50;6.65;;;;;;;;;;12596449;28;20047;-80
2022/03/18 16:29:20;;;;;;;4.83;3.70;;;;;;;;;;12593186;28;20048;-76
2022/03/18 16:35:22;;;;;;;9.13;8.23;;;;;;;;;;12594571;28;20032;-80
2022/03/18 16:41:25;;;;;;;4.38;3.72;;;;;;;;;;12593561;28;20361;-80
2022/03/18 16:53:49;;;;;;;3.83;3.53;;;;;;;;;;12594725;28;20481;-79
2022/03/18 16:59:51;;;;;;;3.85;3.40;;;;;;;;;;12595682;28;20036;-76
2022/03/18 17:05:53;;;;;;;5.87;3.97;;;;;;;;;;12594612;28;20040;-75
2022/03/18 17:11:56;;;;;;;4.55;3.58;;;;;;;;;;12600636;28;20060;-77
2022/03/18 17:17:58;;;;;;;6.40;4.78;;;;;;;;;;12593614;28;20028;-75
2022/03/18 17:24:00;;;;;;;4.63;4.10;;;;;;;;;;12592661;28;20040;-76
2022/03/18 17:30:03;;;;;;;6.07;4.55;;;;;;;;;;12593102;28;20271;-77
2022/03/18 17:36:05;;;;;;;4.60;4.20;;;;;;;;;;12591398;28;20500;-79
2022/03/18 17:42:07;;;;;;;5.63;4.57;;;;;;;;;;12591823;28;20295;-79
2022/03/18 17:48:09;;;;;;;6.32;3.33;;;;;;;;;;12591732;28;20028;-79
2022/03/18 17:54:13;;;;;;;6.18;5.15;;;;;;;;;;12592352;28;20380;-77
2022/03/18 18:00:15;;;;;;;6.40;5.80;;;;;;;;;;12590781;28;20393;-76
2022/03/18 18:06:17;;;;;;;6.70;5.80;;;;;;;;;;12591894;28;20477;-78
2022/03/18 18:12:20;;;;;;;6.83;6.23;;;;;;;;;;12602190;28;20063;-79
2022/03/18 18:18:22;;;;;;;9.00;7.60;;;;;;;;;;12612073;28;20036;-79
2022/03/18 18:24:26;;;;;;;6.47;5.03;;;;;;;;;;12590092;28;20049;-78
2022/03/18 18:30:28;;;;;;;6.65;5.38;;;;;;;;;;12591643;28;20025;-79
2022/03/18 18:36:33;;;;;;;6.07;5.28;;;;;;;;;;12596479;28;20025;-79
2022/03/18 18:42:35;;;;;;;9.07;5.63;;;;;;;;;;12590847;28;20041;-79
2022/03/18 18:48:37;;;;;;;5.70;5.13;;;;;;;;;;12592942;28;20031;-79
2022/03/18 18:54:44;;;;;;;6.63;6.03;;;;;;;;;;12601210;28;20184;-78
2022/03/18 19:00:51;;;;;;;8.63;7.00;;;;;;;;;;12610247;28;20045;-77
2022/03/18 19:06:53;;;;;;;9.63;7.68;;;;;;;;;;12598179;28;20055;-78
2022/03/18 19:12:55;;;;;;;7.28;6.53;;;;;;;;;;12599454;28;20056;-79
2022/03/18 19:18:59;;;;;;;7.20;6.60;;;;;;;;;;12599413;28;20033;-77
2022/03/18 19:25:01;;;;;;;6.50;5.72;;;;;;;;;;12597062;28;20496;-80
2022/03/18 19:31:03;;;;;;;10.50;8.57;;;;;;;;;;12600183;28;20033;-77
2022/03/18 19:37:06;;;;;;;7.18;6.47;;;;;;;;;;12608980;28;20052;-77
2022/03/18 19:43:13;;;;;;;9.27;6.28;;;;;;;;;;12596505;28;20051;-77
2022/03/18 19:49:15;;;;;;;11.48;8.80;;;;;;;;;;12596613;28;20401;-77
2022/03/18 20:00:58;;;;;;;9.90;8.10;;;;;;;;;;12596013;28;20039;-76
2022/03/18 20:01:38;;;;;;;9.57;8.32;;;;;;;;;;12593354;28;20052;-77
2022/03/18 20:07:41;;;;;;;8.63;6.50;;;;;;;;;;12593343;28;20037;-77
2022/03/18 20:13:43;;;;;;;9.20;6.90;;;;;;;;;;12594656;28;20053;-77
2022/03/18 20:19:46;;;;;;;7.32;6.40;;;;;;;;;;12604187;28;20043;-80
2022/03/18 20:25:48;;;;;;;6.72;5.70;;;;;;;;;;12593636;28;20048;-79
2022/03/18 20:31:51;;;;;;;7.38;6.20;;;;;;;;;;12575434;28;20040;-76
2022/03/18 20:37:54;;;;;;;6.03;4.80;;;;;;;;;;12593090;28;20024;-76
2022/03/18 20:43:56;;;;;;;7.28;6.57;;;;;;;;;;12575793;28;20405;-76
2022/03/18 20:50:00;;;;;;;6.57;5.93;;;;;;;;;;12593168;28;20363;-77
2022/03/18 20:56:01;;;;;;;7.80;7.00;;;;;;;;;;12592384;28;20062;-76
2022/03/18 21:02:03;;;;;;;5.40;4.90;;;;;;;;;;12590839;28;20485;-79
2022/03/18 21:08:05;;;;;;;5.75;5.15;;;;;;;;;;12591935;28;20025;-79
2022/03/18 21:14:07;;;;;;;6.18;5.57;;;;;;;;;;12591999;28;20056;-78
2022/03/18 21:20:13;;;;;;;8.50;7.53;;;;;;;;;;12591185;28;20037;-79
2022/03/18 21:32:35;;;;;;;8.98;8.07;;;;;;;;;;12591199;28;20405;-79
2022/03/18 21:38:38;;;;;;;8.63;7.72;;;;;;;;;;12589252;28;20037;-79
2022/03/18 21:44:40;;;;;;;8.68;7.55;;;;;;;;;;12591520;28;20052;-79
2022/03/18 21:50:42;;;;;;;9.88;8.90;;;;;;;;;;12590350;28;20031;-79
2022/03/18 21:56:44;;;;;;;8.73;7.03;;;;;;;;;;12590002;28;20393;-79
2022/03/18 22:02:46;;;;;;;9.50;8.60;;;;;;;;;;12594158;28;20063;-79
2022/03/18 22:08:48;;;;;;;8.85;8.05;;;;;;;;;;12590623;28;20032;-79
2022/03/18 22:14:50;;;;;;;9.50;8.52;;;;;;;;;;12590146;28;20055;-79
2022/03/18 22:20:51;;;;;;;10.38;9.32;;;;;;;;;;12588089;28;20028;-79
2022/03/18 22:26:54;;;;;;;7.68;6.90;;;;;;;;;;12598051;28;20035;-79
2022/03/18 22:32:56;;;;;;;8.98;7.38;;;;;;;;;;12599351;28;20051;-76
2022/03/18 22:38:59;;;;;;;10.10;9.10;;;;;;;;;;12598815;28;20043;-76
2022/03/18 22:45:01;;;;;;;11.68;10.50;;;;;;;;;;12597800;28;20049;-76
2022/03/18 22:51:02;;;;;;;11.77;10.57;;;;;;;;;;12597043;28;20029;-76
2022/03/18 22:57:07;;;;;;;9.30;8.40;;;;;;;;;;12597072;28;20343;-76
2022/03/18 23:03:10;;;;;;;10.05;9.05;;;;;;;;;;12597812;28;20040;-79
2022/03/18 23:09:12;;;;;;;9.18;8.20;;;;;;;;;;12598048;28;20040;-79
2022/03/18 23:15:13;;;;;;;11.25;10.15;;;;;;;;;;12598409;28;20060;-79
2022/03/18 23:21:16;;;;;;;9.65;8.75;;;;;;;;;;12597774;28;20046;-80
2022/03/18 23:27:17;;;;;;;10.03;8.90;;;;;;;;;;12607715;28;20039;-80
2022/03/18 23:33:20;;;;;;;8.95;8.05;;;;;;;;;;12596025;28;20035;-77
2022/03/18 23:39:21;;;;;;;9.45;8.43;;;;;;;;;;12596074;28;20029;-76
2022/03/18 23:45:23;;;;;;;8.65;7.75;;;;;;;;;;12578046;28;20041;-76
2022/03/18 23:51:25;;;;;;;11.55;10.45;;;;;;;;;;12595601;28;20044;-76
2022/03/18 23:57:27;;;;;;;9.43;8.52;;;;;;;;;;12596125;28;20504;-75
